sensor_id;sensor_type;location;lat;lon;timestamp;P1;durP1;ratioP1;P2;durP2;ratioP2
12768;SDS011;6448;48.916;8.990;2023-11-22T00:00:57;1.55;;;1.45;;
12768;SDS011;6448;48.916;8.990;2023-11-22T00:01:58;1.60;;;1.50;;
12768;SDS011;6448;48.916;8.990;2023-11-22T00:02:59;1.60;;;1.50;;
12768;SDS011;6448;48.916;8.990;2023-11-22T00:04:01;1.50;;;1.40;;
12768;SDS011;6448;48.916;8.990;2023-11-22T00:05:04;1.67;;;1.58;;
12768;SDS011;6448;48.916;8.990;2023-11-22T00:06:06;1.70;;;1.60;;
12768;SDS011;6448;48.916;8.990;2023-11-22T00:07:07;1.67;;;1.58;;
12768;SDS011;6448;48.916;8.990;2023-11-22T00:08:09;1.70;;;1.60;;
12768;SDS011;6448;48.916;8.990;2023-11-22T00:09:10;1.70;;;1.60;;
12768;SDS011;6448;48.916;8.990;2023-11-22T00:10:11;1.60;;;1.50;;
12768;SDS011;6448;48.916;8.990;2023-11-22T00:11:12;1.70;;;1.60;;
12768;SDS011;6448;48.916;8.990;2023-11-22T00:12:14;1.77;;;1.67;;
12768;SDS011;6448;48.916;8.990;2023-11-22T00:13:17;2.03;;;1.92;;
12768;SDS011;6448;48.916;8.990;2023-11-22T00:14:18;1.80;;;1.70;;
12768;SDS011;6448;48.916;8.990;2023-11-22T00:15:21;1.87;;;1.77;;
12768;SDS011;6448;48.916;8.990;2023-11-22T00:16:22;1.80;;;1.70;;
12768;SDS011;6448;48.916;8.990;2023-11-22T00:17:24;1.83;;;1.73;;
12768;SDS011;6448;48.916;8.990;2023-11-22T00:18:25;1.80;;;1.70;;
12768;SDS011;6448;48.916;8.990;2023-11-22T00:19:27;1.90;;;1.80;;
12768;SDS011;6448;48.916;8.990;2023-11-22T00:20:29;1.90;;;1.80;;
12768;SDS011;6448;48.916;8.990;2023-11-22T00:21:30;1.80;;;1.70;;
12768;SDS011;6448;48.916;8.990;2023-11-22T00:22:32;2.00;;;1.90;;
12768;SDS011;6448;48.916;8.990;2023-11-22T00:23:33;1.90;;;1.80;;
12768;SDS011;6448;48.916;8.990;2023-11-22T00:24:35;1.90;;;1.80;;
12768;SDS011;6448;48.916;8.990;2023-11-22T00:25:36;1.98;;;1.88;;
12768;SDS011;6448;48.916;8.990;2023-11-22T00:26:37;1.90;;;1.80;;
12768;SDS011;6448;48.916;8.990;2023-11-22T00:27:38;1.90;;;1.80;;
12768;SDS011;6448;48.916;8.990;2023-11-22T00:28:40;1.80;;;1.70;;
12768;SDS011;6448;48.916;8.990;2023-11-22T00:29:41;1.95;;;1.85;;
12768;SDS011;6448;48.916;8.990;2023-11-22T00:30:43;1.88;;;1.77;;
12768;SDS011;6448;48.916;8.990;2023-11-22T00:31:44;2.00;;;1.90;;
12768;SDS011;6448;48.916;8.990;2023-11-22T00:32:45;1.85;;;1.75;;
12768;SDS011;6448;48.916;8.990;2023-11-22T00:33:46;1.70;;;1.60;;
12768;SDS011;6448;48.916;8.990;2023-11-22T00:34:47;1.90;;;1.80;;
12768;SDS011;6448;48.916;8.990;2023-11-22T00:35:50;1.83;;;1.73;;
12768;SDS011;6448;48.916;8.990;2023-11-22T00:36:53;1.77;;;1.67;;
12768;SDS011;6448;48.916;8.990;2023-11-22T00:37:55;1.80;;;1.70;;
12768;SDS011;6448;48.916;8.990;2023-11-22T00:38:56;1.80;;;1.70;;
12768;SDS011;6448;48.916;8.990;2023-11-22T00:39:57;1.73;;;1.63;;
12768;SDS011;6448;48.916;8.990;2023-11-22T00:41:01;1.73;;;1.63;;
12768;SDS011;6448;48.916;8.990;2023-11-22T00:42:03;1.80;;;1.70;;
12768;SDS011;6448;48.916;8.990;2023-11-22T00:43:04;1.85;;;1.75;;
12768;SDS011;6448;48.916;8.990;2023-11-22T00:44:06;1.80;;;1.70;;
12768;SDS011;6448;48.916;8.990;2023-11-22T00:45:07;1.90;;;1.80;;
12768;SDS011;6448;48.916;8.990;2023-11-22T00:46:10;1.83;;;1.73;;
12768;SDS011;6448;48.916;8.990;2023-11-22T00:47:11;1.80;;;1.70;;
12768;SDS011;6448;48.916;8.990;2023-11-22T00:48:13;1.70;;;1.60;;
12768;SDS011;6448;48.916;8.990;2023-11-22T00:49:14;1.80;;;1.70;;
12768;SDS011;6448;48.916;8.990;2023-11-22T00:50:16;1.80;;;1.70;;
12768;SDS011;6448;48.916;8.990;2023-11-22T00:51:21;1.70;;;1.60;;
12768;SDS011;6448;48.916;8.990;2023-11-22T00:52:22;1.60;;;1.50;;
12768;SDS011;6448;48.916;8.990;2023-11-22T00:53:23;1.73;;;1.63;;
12768;SDS011;6448;48.916;8.990;2023-11-22T00:54:25;1.70;;;1.60;;
12768;SDS011;6448;48.916;8.990;2023-11-22T00:55:26;1.70;;;1.60;;
12768;SDS011;6448;48.916;8.990;2023-11-22T00:56:28;1.92;;;1.63;;
12768;SDS011;6448;48.916;8.990;2023-11-22T00:57:29;1.70;;;1.60;;
12768;SDS011;6448;48.916;8.990;2023-11-22T00:58:30;1.60;;;1.50;;
12768;SDS011;6448;48.916;8.990;2023-11-22T00:59:32;1.60;;;1.50;;
12768;SDS011;6448;48.916;8.990;2023-11-22T01:00:33;1.70;;;1.60;;
12768;SDS011;6448;48.916;8.990;2023-11-22T01:01:34;1.70;;;1.60;;
12768;SDS011;6448;48.916;8.990;2023-11-22T01:02:36;1.75;;;1.65;;
12768;SDS011;6448;48.916;8.990;2023-11-22T01:03:38;1.80;;;1.70;;
12768;SDS011;6448;48.916;8.990;2023-11-22T01:04:40;1.67;;;1.58;;
12768;SDS011;6448;48.916;8.990;2023-11-22T01:05:40;1.70;;;1.60;;
12768;SDS011;6448;48.916;8.990;2023-11-22T01:06:44;1.73;;;1.63;;
12768;SDS011;6448;48.916;8.990;2023-11-22T01:07:45;1.75;;;1.65;;
12768;SDS011;6448;48.916;8.990;2023-11-22T01:08:47;1.70;;;1.60;;
12768;SDS011;6448;48.916;8.990;2023-11-22T01:09:48;1.60;;;1.50;;
12768;SDS011;6448;48.916;8.990;2023-11-22T01:10:50;1.60;;;1.50;;
12768;SDS011;6448;48.916;8.990;2023-11-22T01:11:50;1.80;;;1.60;;
12768;SDS011;6448;48.916;8.990;2023-11-22T01:12:52;1.70;;;1.60;;
12768;SDS011;6448;48.916;8.990;2023-11-22T01:13:53;1.77;;;1.67;;
12768;SDS011;6448;48.916;8.990;2023-11-22T01:14:54;1.98;;;1.88;;
12768;SDS011;6448;48.916;8.990;2023-11-22T01:15:55;1.77;;;1.67;;
12768;SDS011;6448;48.916;8.990;2023-11-22T01:16:57;1.60;;;1.50;;
12768;SDS011;6448;48.916;8.990;2023-11-22T01:17:59;1.77;;;1.67;;
12768;SDS011;6448;48.916;8.990;2023-11-22T01:19:00;1.60;;;1.50;;
12768;SDS011;6448;48.916;8.990;2023-11-22T01:20:01;1.80;;;1.70;;
12768;SDS011;6448;48.916;8.990;2023-11-22T01:21:03;1.73;;;1.63;;
12768;SDS011;6448;48.916;8.990;2023-11-22T01:22:05;1.80;;;1.70;;
12768;SDS011;6448;48.916;8.990;2023-11-22T01:23:07;1.90;;;1.80;;
12768;SDS011;6448;48.916;8.990;2023-11-22T01:24:08;1.70;;;1.60;;
12768;SDS011;6448;48.916;8.990;2023-11-22T01:25:11;1.60;;;1.50;;
12768;SDS011;6448;48.916;8.990;2023-11-22T01:26:12;1.98;;;1.88;;
12768;SDS011;6448;48.916;8.990;2023-11-22T01:27:13;1.70;;;1.60;;
12768;SDS011;6448;48.916;8.990;2023-11-22T01:28:14;1.70;;;1.60;;
12768;SDS011;6448;48.916;8.990;2023-11-22T01:29:17;1.50;;;1.40;;
12768;SDS011;6448;48.916;8.990;2023-11-22T01:30:18;1.67;;;1.58;;
12768;SDS011;6448;48.916;8.990;2023-11-22T01:31:18;1.70;;;1.60;;
12768;SDS011;6448;48.916;8.990;2023-11-22T01:32:21;1.70;;;1.60;;
12768;SDS011;6448;48.916;8.990;2023-11-22T01:33:21;1.70;;;1.60;;
12768;SDS011;6448;48.916;8.990;2023-11-22T01:34:23;1.80;;;1.70;;
12768;SDS011;6448;48.916;8.990;2023-11-22T01:35:24;1.70;;;1.60;;
12768;SDS011;6448;48.916;8.990;2023-11-22T01:36:26;1.70;;;1.60;;
12768;SDS011;6448;48.916;8.990;2023-11-22T01:37:29;1.80;;;1.70;;
12768;SDS011;6448;48.916;8.990;2023-11-22T01:38:30;1.67;;;1.58;;
12768;SDS011;6448;48.916;8.990;2023-11-22T01:39:31;1.80;;;1.70;;
12768;SDS011;6448;48.916;8.990;2023-11-22T01:40:33;1.60;;;1.50;;
12768;SDS011;6448;48.916;8.990;2023-11-22T01:41:34;1.77;;;1.67;;
12768;SDS011;6448;48.916;8.990;2023-11-22T01:42:36;1.60;;;1.50;;
12768;SDS011;6448;48.916;8.990;2023-11-22T01:43:39;2.30;;;1.70;;
12768;SDS011;6448;48.916;8.990;2023-11-22T01:44:41;1.70;;;1.60;;
12768;SDS011;6448;48.916;8.990;2023-11-22T01:45:42;1.60;;;1.50;;
12768;SDS011;6448;48.916;8.990;2023-11-22T01:46:44;1.67;;;1.58;;
12768;SDS011;6448;48.916;8.990;2023-11-22T01:47:45;1.70;;;1.60;;
12768;SDS011;6448;48.916;8.990;2023-11-22T01:48:47;1.60;;;1.50;;
12768;SDS011;6448;48.916;8.990;2023-11-22T01:49:48;1.60;;;1.50;;
12768;SDS011;6448;48.916;8.990;2023-11-22T01:50:49;1.90;;;1.58;;
12768;SDS011;6448;48.916;8.990;2023-11-22T01:51:51;1.80;;;1.70;;
12768;SDS011;6448;48.916;8.990;2023-11-22T01:52:54;1.80;;;1.70;;
12768;SDS011;6448;48.916;8.990;2023-11-22T01:53:56;1.70;;;1.60;;
12768;SDS011;6448;48.916;8.990;2023-11-22T01:54:57;1.70;;;1.60;;
12768;SDS011;6448;48.916;8.990;2023-11-22T01:56:01;1.58;;;1.48;;
12768;SDS011;6448;48.916;8.990;2023-11-22T01:57:02;1.60;;;1.50;;
12768;SDS011;6448;48.916;8.990;2023-11-22T01:58:08;1.63;;;1.52;;
12768;SDS011;6448;48.916;8.990;2023-11-22T01:59:08;1.70;;;1.60;;
12768;SDS011;6448;48.916;8.990;2023-11-22T02:00:11;1.67;;;1.58;;
12768;SDS011;6448;48.916;8.990;2023-11-22T02:01:15;1.75;;;1.65;;
12768;SDS011;6448;48.916;8.990;2023-11-22T02:02:17;1.70;;;1.60;;
12768;SDS011;6448;48.916;8.990;2023-11-22T02:03:18;1.70;;;1.60;;
12768;SDS011;6448;48.916;8.990;2023-11-22T02:04:20;1.67;;;1.58;;
12768;SDS011;6448;48.916;8.990;2023-11-22T02:05:21;1.73;;;1.63;;
12768;SDS011;6448;48.916;8.990;2023-11-22T02:06:23;1.80;;;1.70;;
12768;SDS011;6448;48.916;8.990;2023-11-22T02:07:26;1.90;;;1.80;;
12768;SDS011;6448;48.916;8.990;2023-11-22T02:08:29;1.70;;;1.60;;
12768;SDS011;6448;48.916;8.990;2023-11-22T02:09:31;1.67;;;1.58;;
12768;SDS011;6448;48.916;8.990;2023-11-22T02:10:32;1.70;;;1.60;;
12768;SDS011;6448;48.916;8.990;2023-11-22T02:11:36;1.85;;;1.75;;
12768;SDS011;6448;48.916;8.990;2023-11-22T02:12:37;2.00;;;1.90;;
12768;SDS011;6448;48.916;8.990;2023-11-22T02:13:39;1.80;;;1.70;;
12768;SDS011;6448;48.916;8.990;2023-11-22T02:14:39;1.98;;;1.80;;
12768;SDS011;6448;48.916;8.990;2023-11-22T02:15:40;1.60;;;1.50;;
12768;SDS011;6448;48.916;8.990;2023-11-22T02:16:42;1.80;;;1.70;;
12768;SDS011;6448;48.916;8.990;2023-11-22T02:17:43;1.80;;;1.70;;
12768;SDS011;6448;48.916;8.990;2023-11-22T02:18:44;1.70;;;1.60;;
12768;SDS011;6448;48.916;8.990;2023-11-22T02:19:47;1.70;;;1.60;;
12768;SDS011;6448;48.916;8.990;2023-11-22T02:20:48;1.83;;;1.73;;
12768;SDS011;6448;48.916;8.990;2023-11-22T02:21:51;1.83;;;1.73;;
12768;SDS011;6448;48.916;8.990;2023-11-22T02:22:52;1.70;;;1.60;;
12768;SDS011;6448;48.916;8.990;2023-11-22T02:23:55;1.80;;;1.70;;
12768;SDS011;6448;48.916;8.990;2023-11-22T02:24:56;2.05;;;1.85;;
12768;SDS011;6448;48.916;8.990;2023-11-22T02:25:58;2.00;;;1.90;;
12768;SDS011;6448;48.916;8.990;2023-11-22T02:27:00;1.95;;;1.85;;
12768;SDS011;6448;48.916;8.990;2023-11-22T02:28:02;1.70;;;1.60;;
12768;SDS011;6448;48.916;8.990;2023-11-22T02:29:03;1.90;;;1.80;;
12768;SDS011;6448;48.916;8.990;2023-11-22T02:30:05;1.95;;;1.85;;
12768;SDS011;6448;48.916;8.990;2023-11-22T02:31:09;1.80;;;1.70;;
12768;SDS011;6448;48.916;8.990;2023-11-22T02:32:10;1.90;;;1.80;;
12768;SDS011;6448;48.916;8.990;2023-11-22T02:33:12;1.90;;;1.80;;
12768;SDS011;6448;48.916;8.990;2023-11-22T02:34:13;1.80;;;1.70;;
12768;SDS011;6448;48.916;8.990;2023-11-22T02:35:18;2.00;;;1.90;;
12768;SDS011;6448;48.916;8.990;2023-11-22T02:36:45;1.88;;;1.77;;
12768;SDS011;6448;48.916;8.990;2023-11-22T02:37:47;1.95;;;1.85;;
12768;SDS011;6448;48.916;8.990;2023-11-22T02:38:48;1.92;;;1.83;;
12768;SDS011;6448;48.916;8.990;2023-11-22T02:39:54;1.95;;;1.85;;
12768;SDS011;6448;48.916;8.990;2023-11-22T02:41:01;1.95;;;1.80;;
12768;SDS011;6448;48.916;8.990;2023-11-22T02:42:04;2.10;;;1.90;;
12768;SDS011;6448;48.916;8.990;2023-11-22T02:43:06;2.10;;;2.00;;
12768;SDS011;6448;48.916;8.990;2023-11-22T02:44:09;1.92;;;1.83;;
12768;SDS011;6448;48.916;8.990;2023-11-22T02:45:11;1.90;;;1.80;;
12768;SDS011;6448;48.916;8.990;2023-11-22T02:46:12;2.10;;;2.00;;
12768;SDS011;6448;48.916;8.990;2023-11-22T02:47:14;2.05;;;1.95;;
12768;SDS011;6448;48.916;8.990;2023-11-22T02:48:15;2.25;;;2.05;;
12768;SDS011;6448;48.916;8.990;2023-11-22T02:49:18;2.10;;;2.00;;
12768;SDS011;6448;48.916;8.990;2023-11-22T02:50:20;2.10;;;2.00;;
12768;SDS011;6448;48.916;8.990;2023-11-22T02:51:21;1.90;;;1.80;;
12768;SDS011;6448;48.916;8.990;2023-11-22T02:52:23;2.10;;;2.00;;
12768;SDS011;6448;48.916;8.990;2023-11-22T02:53:25;1.95;;;1.85;;
12768;SDS011;6448;48.916;8.990;2023-11-22T02:54:27;1.90;;;1.80;;
12768;SDS011;6448;48.916;8.990;2023-11-22T02:55:30;1.95;;;1.85;;
12768;SDS011;6448;48.916;8.990;2023-11-22T02:56:32;2.00;;;1.80;;
12768;SDS011;6448;48.916;8.990;2023-11-22T02:57:32;1.95;;;1.85;;
12768;SDS011;6448;48.916;8.990;2023-11-22T02:58:33;2.00;;;1.90;;
12768;SDS011;6448;48.916;8.990;2023-11-22T02:59:35;2.10;;;2.00;;
12768;SDS011;6448;48.916;8.990;2023-11-22T03:00:36;2.20;;;2.00;;
12768;SDS011;6448;48.916;8.990;2023-11-22T03:01:38;2.10;;;2.00;;
12768;SDS011;6448;48.916;8.990;2023-11-22T03:02:42;1.98;;;1.88;;
12768;SDS011;6448;48.916;8.990;2023-11-22T03:03:46;1.85;;;1.75;;
12768;SDS011;6448;48.916;8.990;2023-11-22T03:04:46;2.10;;;2.00;;
12768;SDS011;6448;48.916;8.990;2023-11-22T03:05:48;2.08;;;1.98;;
12768;SDS011;6448;48.916;8.990;2023-11-22T03:06:50;2.00;;;1.90;;
12768;SDS011;6448;48.916;8.990;2023-11-22T03:07:52;1.90;;;1.80;;
12768;SDS011;6448;48.916;8.990;2023-11-22T03:08:53;2.10;;;2.00;;
12768;SDS011;6448;48.916;8.990;2023-11-22T03:09:54;1.90;;;1.80;;
12768;SDS011;6448;48.916;8.990;2023-11-22T03:11:01;2.00;;;1.90;;
12768;SDS011;6448;48.916;8.990;2023-11-22T03:12:02;1.85;;;1.75;;
12768;SDS011;6448;48.916;8.990;2023-11-22T03:13:05;2.00;;;1.90;;
12768;SDS011;6448;48.916;8.990;2023-11-22T03:14:05;2.00;;;1.90;;
12768;SDS011;6448;48.916;8.990;2023-11-22T03:15:07;1.90;;;1.80;;
12768;SDS011;6448;48.916;8.990;2023-11-22T03:16:09;2.30;;;2.10;;
12768;SDS011;6448;48.916;8.990;2023-11-22T03:17:11;2.30;;;2.10;;
12768;SDS011;6448;48.916;8.990;2023-11-22T03:18:13;2.00;;;1.90;;
12768;SDS011;6448;48.916;8.990;2023-11-22T03:19:16;2.10;;;2.00;;
12768;SDS011;6448;48.916;8.990;2023-11-22T03:20:19;2.05;;;1.95;;
12768;SDS011;6448;48.916;8.990;2023-11-22T03:21:21;2.17;;;1.98;;
12768;SDS011;6448;48.916;8.990;2023-11-22T03:22:22;1.90;;;1.80;;
12768;SDS011;6448;48.916;8.990;2023-11-22T03:23:24;2.05;;;1.90;;
12768;SDS011;6448;48.916;8.990;2023-11-22T03:24:25;2.80;;;2.00;;
12768;SDS011;6448;48.916;8.990;2023-11-22T03:25:28;2.10;;;2.00;;
12768;SDS011;6448;48.916;8.990;2023-11-22T03:26:30;2.00;;;1.90;;
12768;SDS011;6448;48.916;8.990;2023-11-22T03:27:32;1.90;;;1.80;;
12768;SDS011;6448;48.916;8.990;2023-11-22T03:28:33;1.90;;;1.80;;
12768;SDS011;6448;48.916;8.990;2023-11-22T03:29:34;1.90;;;1.80;;
12768;SDS011;6448;48.916;8.990;2023-11-22T03:30:35;1.90;;;1.80;;
12768;SDS011;6448;48.916;8.990;2023-11-22T03:31:36;2.05;;;1.90;;
12768;SDS011;6448;48.916;8.990;2023-11-22T03:32:39;1.80;;;1.70;;
12768;SDS011;6448;48.916;8.990;2023-11-22T03:33:39;2.20;;;2.00;;
12768;SDS011;6448;48.916;8.990;2023-11-22T03:34:40;2.00;;;1.90;;
12768;SDS011;6448;48.916;8.990;2023-11-22T03:35:42;2.22;;;2.13;;
12768;SDS011;6448;48.916;8.990;2023-11-22T03:36:43;1.90;;;1.77;;
12768;SDS011;6448;48.916;8.990;2023-11-22T03:37:45;1.70;;;1.60;;
12768;SDS011;6448;48.916;8.990;2023-11-22T03:38:46;1.75;;;1.65;;
12768;SDS011;6448;48.916;8.990;2023-11-22T03:39:48;1.92;;;1.83;;
12768;SDS011;6448;48.916;8.990;2023-11-22T03:40:49;1.98;;;1.88;;
12768;SDS011;6448;48.916;8.990;2023-11-22T03:41:52;1.70;;;1.60;;
12768;SDS011;6448;48.916;8.990;2023-11-22T03:42:53;1.85;;;1.75;;
12768;SDS011;6448;48.916;8.990;2023-11-22T03:43:53;1.60;;;1.50;;
12768;SDS011;6448;48.916;8.990;2023-11-22T03:44:56;1.80;;;1.70;;
12768;SDS011;6448;48.916;8.990;2023-11-22T03:45:59;1.70;;;1.60;;
12768;SDS011;6448;48.916;8.990;2023-11-22T03:47:01;1.90;;;1.80;;
12768;SDS011;6448;48.916;8.990;2023-11-22T03:48:01;1.80;;;1.70;;
12768;SDS011;6448;48.916;8.990;2023-11-22T03:49:04;1.70;;;1.60;;
12768;SDS011;6448;48.916;8.990;2023-11-22T03:50:07;1.90;;;1.70;;
12768;SDS011;6448;48.916;8.990;2023-11-22T03:51:10;1.85;;;1.58;;
12768;SDS011;6448;48.916;8.990;2023-11-22T03:52:11;1.52;;;1.42;;
12768;SDS011;6448;48.916;8.990;2023-11-22T03:53:14;1.80;;;1.70;;
12768;SDS011;6448;48.916;8.990;2023-11-22T03:54:16;1.70;;;1.60;;
12768;SDS011;6448;48.916;8.990;2023-11-22T03:55:17;1.70;;;1.60;;
12768;SDS011;6448;48.916;8.990;2023-11-22T03:56:19;1.70;;;1.60;;
12768;SDS011;6448;48.916;8.990;2023-11-22T03:57:21;1.60;;;1.50;;
12768;SDS011;6448;48.916;8.990;2023-11-22T03:58:22;1.70;;;1.60;;
12768;SDS011;6448;48.916;8.990;2023-11-22T03:59:24;1.52;;;1.42;;
12768;SDS011;6448;48.916;8.990;2023-11-22T04:00:25;1.90;;;1.80;;
12768;SDS011;6448;48.916;8.990;2023-11-22T04:01:27;2.07;;;1.70;;
12768;SDS011;6448;48.916;8.990;2023-11-22T04:02:27;1.70;;;1.60;;
12768;SDS011;6448;48.916;8.990;2023-11-22T04:03:29;1.60;;;1.50;;
12768;SDS011;6448;48.916;8.990;2023-11-22T04:04:30;1.60;;;1.50;;
12768;SDS011;6448;48.916;8.990;2023-11-22T04:05:32;1.75;;;1.65;;
12768;SDS011;6448;48.916;8.990;2023-11-22T04:06:33;2.50;;;2.30;;
12768;SDS011;6448;48.916;8.990;2023-11-22T04:07:34;2.60;;;2.40;;
12768;SDS011;6448;48.916;8.990;2023-11-22T04:08:35;2.63;;;2.42;;
12768;SDS011;6448;48.916;8.990;2023-11-22T04:09:38;2.13;;;2.03;;
12768;SDS011;6448;48.916;8.990;2023-11-22T04:10:38;2.03;;;1.83;;
12768;SDS011;6448;48.916;8.990;2023-11-22T04:11:40;1.90;;;1.80;;
12768;SDS011;6448;48.916;8.990;2023-11-22T04:12:42;1.70;;;1.60;;
12768;SDS011;6448;48.916;8.990;2023-11-22T04:13:44;1.80;;;1.70;;
12768;SDS011;6448;48.916;8.990;2023-11-22T04:14:45;1.73;;;1.63;;
12768;SDS011;6448;48.916;8.990;2023-11-22T04:15:46;1.90;;;1.80;;
12768;SDS011;6448;48.916;8.990;2023-11-22T04:16:47;1.67;;;1.58;;
12768;SDS011;6448;48.916;8.990;2023-11-22T04:17:48;1.63;;;1.52;;
12768;SDS011;6448;48.916;8.990;2023-11-22T04:18:50;1.75;;;1.65;;
12768;SDS011;6448;48.916;8.990;2023-11-22T04:19:51;1.77;;;1.67;;
12768;SDS011;6448;48.916;8.990;2023-11-22T04:20:52;1.60;;;1.50;;
12768;SDS011;6448;48.916;8.990;2023-11-22T04:21:53;1.92;;;1.73;;
12768;SDS011;6448;48.916;8.990;2023-11-22T04:22:55;1.70;;;1.60;;
12768;SDS011;6448;48.916;8.990;2023-11-22T04:23:56;1.77;;;1.67;;
12768;SDS011;6448;48.916;8.990;2023-11-22T04:24:58;1.70;;;1.60;;
12768;SDS011;6448;48.916;8.990;2023-11-22T04:25:59;1.70;;;1.60;;
12768;SDS011;6448;48.916;8.990;2023-11-22T04:27:02;1.60;;;1.50;;
12768;SDS011;6448;48.916;8.990;2023-11-22T04:28:04;1.50;;;1.40;;
12768;SDS011;6448;48.916;8.990;2023-11-22T04:29:08;1.70;;;1.60;;
12768;SDS011;6448;48.916;8.990;2023-11-22T04:30:09;1.70;;;1.60;;
12768;SDS011;6448;48.916;8.990;2023-11-22T04:31:14;1.60;;;1.50;;
12768;SDS011;6448;48.916;8.990;2023-11-22T04:32:15;1.70;;;1.60;;
12768;SDS011;6448;48.916;8.990;2023-11-22T04:33:17;2.30;;;1.60;;
12768;SDS011;6448;48.916;8.990;2023-11-22T04:34:18;1.70;;;1.60;;
12768;SDS011;6448;48.916;8.990;2023-11-22T04:35:20;1.63;;;1.52;;
12768;SDS011;6448;48.916;8.990;2023-11-22T04:36:21;1.70;;;1.60;;
12768;SDS011;6448;48.916;8.990;2023-11-22T04:37:23;1.80;;;1.70;;
12768;SDS011;6448;48.916;8.990;2023-11-22T04:38:26;1.90;;;1.70;;
12768;SDS011;6448;48.916;8.990;2023-11-22T04:39:28;1.70;;;1.60;;
12768;SDS011;6448;48.916;8.990;2023-11-22T04:40:29;1.60;;;1.50;;
12768;SDS011;6448;48.916;8.990;2023-11-22T04:41:31;2.00;;;1.65;;
12768;SDS011;6448;48.916;8.990;2023-11-22T04:42:32;2.30;;;1.60;;
12768;SDS011;6448;48.916;8.990;2023-11-22T04:43:35;1.60;;;1.50;;
12768;SDS011;6448;48.916;8.990;2023-11-22T04:44:37;1.90;;;1.80;;
12768;SDS011;6448;48.916;8.990;2023-11-22T04:45:38;1.70;;;1.60;;
12768;SDS011;6448;48.916;8.990;2023-11-22T04:46:39;2.10;;;1.60;;
12768;SDS011;6448;48.916;8.990;2023-11-22T04:47:41;1.70;;;1.60;;
12768;SDS011;6448;48.916;8.990;2023-11-22T04:48:42;1.70;;;1.60;;
12768;SDS011;6448;48.916;8.990;2023-11-22T04:49:45;1.83;;;1.60;;
12768;SDS011;6448;48.916;8.990;2023-11-22T04:50:45;1.73;;;1.63;;
12768;SDS011;6448;48.916;8.990;2023-11-22T04:51:47;1.70;;;1.60;;
12768;SDS011;6448;48.916;8.990;2023-11-22T04:52:49;2.00;;;1.80;;
12768;SDS011;6448;48.916;8.990;2023-11-22T04:53:51;1.60;;;1.50;;
12768;SDS011;6448;48.916;8.990;2023-11-22T04:54:52;1.70;;;1.60;;
12768;SDS011;6448;48.916;8.990;2023-11-22T04:55:53;1.70;;;1.60;;
12768;SDS011;6448;48.916;8.990;2023-11-22T04:56:54;1.60;;;1.50;;
12768;SDS011;6448;48.916;8.990;2023-11-22T04:57:56;1.70;;;1.60;;
12768;SDS011;6448;48.916;8.990;2023-11-22T04:58:58;1.90;;;1.80;;
12768;SDS011;6448;48.916;8.990;2023-11-22T05:00:00;1.60;;;1.50;;
12768;SDS011;6448;48.916;8.990;2023-11-22T05:01:03;1.80;;;1.70;;
12768;SDS011;6448;48.916;8.990;2023-11-22T05:02:05;1.80;;;1.70;;
12768;SDS011;6448;48.916;8.990;2023-11-22T05:03:07;1.60;;;1.50;;
12768;SDS011;6448;48.916;8.990;2023-11-22T05:04:09;1.80;;;1.70;;
12768;SDS011;6448;48.916;8.990;2023-11-22T05:05:10;1.75;;;1.50;;
12768;SDS011;6448;48.916;8.990;2023-11-22T05:06:12;1.70;;;1.60;;
12768;SDS011;6448;48.916;8.990;2023-11-22T05:07:13;1.80;;;1.70;;
12768;SDS011;6448;48.916;8.990;2023-11-22T05:08:15;1.77;;;1.67;;
12768;SDS011;6448;48.916;8.990;2023-11-22T05:09:16;1.75;;;1.65;;
12768;SDS011;6448;48.916;8.990;2023-11-22T05:10:19;1.80;;;1.70;;
12768;SDS011;6448;48.916;8.990;2023-11-22T05:11:19;1.90;;;1.70;;
12768;SDS011;6448;48.916;8.990;2023-11-22T05:12:21;1.80;;;1.70;;
12768;SDS011;6448;48.916;8.990;2023-11-22T05:13:22;1.80;;;1.70;;
12768;SDS011;6448;48.916;8.990;2023-11-22T05:14:25;1.90;;;1.80;;
12768;SDS011;6448;48.916;8.990;2023-11-22T05:15:26;2.30;;;2.20;;
12768;SDS011;6448;48.916;8.990;2023-11-22T05:16:29;2.00;;;1.90;;
12768;SDS011;6448;48.916;8.990;2023-11-22T05:17:29;1.85;;;1.70;;
12768;SDS011;6448;48.916;8.990;2023-11-22T05:18:32;1.80;;;1.70;;
12768;SDS011;6448;48.916;8.990;2023-11-22T05:19:33;1.88;;;1.77;;
12768;SDS011;6448;48.916;8.990;2023-11-22T05:20:35;1.80;;;1.70;;
12768;SDS011;6448;48.916;8.990;2023-11-22T05:21:35;1.80;;;1.70;;
12768;SDS011;6448;48.916;8.990;2023-11-22T05:22:37;1.70;;;1.60;;
12768;SDS011;6448;48.916;8.990;2023-11-22T05:23:38;1.60;;;1.50;;
12768;SDS011;6448;48.916;8.990;2023-11-22T05:24:40;1.60;;;1.50;;
12768;SDS011;6448;48.916;8.990;2023-11-22T05:25:41;1.67;;;1.58;;
12768;SDS011;6448;48.916;8.990;2023-11-22T05:26:43;1.65;;;1.55;;
12768;SDS011;6448;48.916;8.990;2023-11-22T05:27:44;1.73;;;1.63;;
12768;SDS011;6448;48.916;8.990;2023-11-22T05:28:45;1.70;;;1.60;;
12768;SDS011;6448;48.916;8.990;2023-11-22T05:29:48;1.65;;;1.55;;
12768;SDS011;6448;48.916;8.990;2023-11-22T05:30:49;1.95;;;1.85;;
12768;SDS011;6448;48.916;8.990;2023-11-22T05:31:51;1.90;;;1.80;;
12768;SDS011;6448;48.916;8.990;2023-11-22T05:32:53;1.90;;;1.80;;
12768;SDS011;6448;48.916;8.990;2023-11-22T05:33:55;1.85;;;1.75;;
12768;SDS011;6448;48.916;8.990;2023-11-22T05:34:56;1.80;;;1.70;;
12768;SDS011;6448;48.916;8.990;2023-11-22T05:35:58;1.77;;;1.67;;
12768;SDS011;6448;48.916;8.990;2023-11-22T05:36:58;1.80;;;1.70;;
12768;SDS011;6448;48.916;8.990;2023-11-22T05:38:00;1.80;;;1.70;;
12768;SDS011;6448;48.916;8.990;2023-11-22T05:39:02;1.90;;;1.65;;
12768;SDS011;6448;48.916;8.990;2023-11-22T05:40:05;1.80;;;1.70;;
12768;SDS011;6448;48.916;8.990;2023-11-22T05:41:09;1.70;;;1.60;;
12768;SDS011;6448;48.916;8.990;2023-11-22T05:42:11;1.90;;;1.80;;
12768;SDS011;6448;48.916;8.990;2023-11-22T05:43:12;3.20;;;2.97;;
12768;SDS011;6448;48.916;8.990;2023-11-22T05:44:13;2.70;;;2.50;;
12768;SDS011;6448;48.916;8.990;2023-11-22T05:45:16;2.00;;;1.90;;
12768;SDS011;6448;48.916;8.990;2023-11-22T05:46:17;2.10;;;2.00;;
12768;SDS011;6448;48.916;8.990;2023-11-22T05:47:21;1.90;;;1.80;;
12768;SDS011;6448;48.916;8.990;2023-11-22T05:48:22;1.93;;;1.83;;
12768;SDS011;6448;48.916;8.990;2023-11-22T05:49:24;1.85;;;1.75;;
12768;SDS011;6448;48.916;8.990;2023-11-22T05:50:25;1.70;;;1.60;;
12768;SDS011;6448;48.916;8.990;2023-11-22T05:51:26;1.63;;;1.52;;
12768;SDS011;6448;48.916;8.990;2023-11-22T05:52:27;1.63;;;1.53;;
12768;SDS011;6448;48.916;8.990;2023-11-22T05:53:29;1.60;;;1.40;;
12768;SDS011;6448;48.916;8.990;2023-11-22T05:54:30;1.50;;;1.40;;
12768;SDS011;6448;48.916;8.990;2023-11-22T05:55:32;1.52;;;1.42;;
12768;SDS011;6448;48.916;8.990;2023-11-22T05:56:32;2.40;;;1.70;;
12768;SDS011;6448;48.916;8.990;2023-11-22T05:57:34;1.63;;;1.52;;
12768;SDS011;6448;48.916;8.990;2023-11-22T05:58:35;1.60;;;1.50;;
12768;SDS011;6448;48.916;8.990;2023-11-22T05:59:38;1.52;;;1.42;;
12768;SDS011;6448;48.916;8.990;2023-11-22T06:00:40;1.70;;;1.60;;
12768;SDS011;6448;48.916;8.990;2023-11-22T06:01:41;1.65;;;1.55;;
12768;SDS011;6448;48.916;8.990;2023-11-22T06:02:43;1.80;;;1.70;;
12768;SDS011;6448;48.916;8.990;2023-11-22T06:03:43;1.60;;;1.50;;
12768;SDS011;6448;48.916;8.990;2023-11-22T06:04:45;1.70;;;1.60;;
12768;SDS011;6448;48.916;8.990;2023-11-22T06:05:46;1.70;;;1.60;;
12768;SDS011;6448;48.916;8.990;2023-11-22T06:06:47;1.80;;;1.70;;
12768;SDS011;6448;48.916;8.990;2023-11-22T06:07:48;1.70;;;1.60;;
12768;SDS011;6448;48.916;8.990;2023-11-22T06:08:49;1.90;;;1.70;;
12768;SDS011;6448;48.916;8.990;2023-11-22T06:09:51;1.70;;;1.60;;
12768;SDS011;6448;48.916;8.990;2023-11-22T06:10:52;1.60;;;1.50;;
12768;SDS011;6448;48.916;8.990;2023-11-22T06:11:53;1.80;;;1.70;;
12768;SDS011;6448;48.916;8.990;2023-11-22T06:12:55;2.15;;;1.63;;
12768;SDS011;6448;48.916;8.990;2023-11-22T06:13:56;1.70;;;1.60;;
12768;SDS011;6448;48.916;8.990;2023-11-22T06:14:58;1.85;;;1.75;;
12768;SDS011;6448;48.916;8.990;2023-11-22T06:16:00;3.60;;;1.57;;
12768;SDS011;6448;48.916;8.990;2023-11-22T06:17:02;1.70;;;1.60;;
12768;SDS011;6448;48.916;8.990;2023-11-22T06:18:03;1.90;;;1.70;;